sensor_id;sensor_type;location;lat;lon;timestamp;pressure;altitude;pressure_sealevel;temperature;humidity
52393;BME280;38320;39.764;2.710;2023-02-03T10:05:03;102642.03;;;10.26;64.23
52393;BME280;38320;39.764;2.710;2023-02-03T10:13:03;102647.75;;;10.41;65.54
52393;BME280;38320;39.764;2.710;2023-02-03T10:15:50;102651.16;;;10.44;63.98
52393;BME280;38320;39.764;2.710;2023-02-03T10:18:24;102665.09;;;10.51;63.70
52393;BME280;38320;39.764;2.710;2023-02-03T10:20:58;102661.34;;;10.57;65.85
52393;BME280;38320;39.764;2.710;2023-02-03T10:23:30;102668.44;;;10.56;64.03
52393;BME280;38320;39.764;2.710;2023-02-03T10:26:00;102679.56;;;10.68;64.51
52393;BME280;38320;39.764;2.710;2023-02-03T10:28:30;102674.19;;;10.69;63.62
52393;BME280;38320;39.764;2.710;2023-02-03T10:31:02;102678.13;;;10.83;65.03
52393;BME280;38320;39.764;2.710;2023-02-03T10:33:32;102677.81;;;10.91;65.09
52393;BME280;38320;39.764;2.710;2023-02-03T10:36:22;102677.41;;;11.01;62.86
52393;BME280;38320;39.764;2.710;2023-02-03T10:41:49;102673.16;;;11.20;63.24
52393;BME280;38320;39.764;2.710;2023-02-03T10:44:14;102672.03;;;11.25;64.12
52393;BME280;38320;39.764;2.710;2023-02-03T10:46:41;102676.13;;;11.34;62.64
52393;BME280;38320;39.764;2.710;2023-02-03T10:49:11;102667.56;;;11.48;62.32
52393;BME280;38320;39.764;2.710;2023-02-03T10:51:47;102671.34;;;11.42;62.16
52393;BME280;38320;39.764;2.710;2023-02-03T10:54:34;102663.09;;;11.49;62.02
52393;BME280;38320;39.764;2.710;2023-02-03T10:57:11;102670.13;;;11.51;61.57
52393;BME280;38320;39.764;2.710;2023-02-03T10:59:41;102656.19;;;11.45;61.15
52393;BME280;38320;39.764;2.710;2023-02-03T11:02:25;102653.63;;;11.41;61.56
52393;BME280;38320;39.764;2.710;2023-02-03T11:05:19;102662.97;;;11.52;61.90
52393;BME280;38320;39.764;2.710;2023-02-03T11:07:45;102661.66;;;11.62;62.23
52393;BME280;38320;39.764;2.710;2023-02-03T11:13:19;102654.63;;;11.61;61.91
52393;BME280;38320;39.764;2.710;2023-02-03T11:15:58;102655.53;;;11.60;60.40
52393;BME280;38320;39.764;2.710;2023-02-03T11:18:52;102656.16;;;11.67;60.48
52393;BME280;38320;39.764;2.710;2023-02-03T11:26:31;102653.53;;;11.65;61.52
52393;BME280;38320;39.764;2.710;2023-02-03T11:28:59;102641.44;;;11.58;60.96
52393;BME280;38320;39.764;2.710;2023-02-03T11:31:28;102636.28;;;11.53;61.18
52393;BME280;38320;39.764;2.710;2023-02-03T11:33:57;102638.16;;;11.51;63.02
52393;BME280;38320;39.764;2.710;2023-02-03T11:36:27;102651.06;;;11.61;62.67
52393;BME280;38320;39.764;2.710;2023-02-03T11:41:42;102620.22;;;11.55;62.90
52393;BME280;38320;39.764;2.710;2023-02-03T11:44:20;102627.00;;;11.64;62.83
52393;BME280;38320;39.764;2.710;2023-02-03T11:46:51;102626.91;;;11.65;63.05
52393;BME280;38320;39.764;2.710;2023-02-03T12:03:43;102609.38;;;11.60;61.97
52393;BME280;38320;39.764;2.710;2023-02-03T12:06:27;102601.72;;;11.52;62.50
52393;BME280;38320;39.764;2.710;2023-02-03T12:11:47;102600.91;;;11.50;62.13
52393;BME280;38320;39.764;2.710;2023-02-03T12:14:50;102596.66;;;11.46;62.59
52393;BME280;38320;39.764;2.710;2023-02-03T12:17:32;102598.53;;;11.43;62.60
52393;BME280;38320;39.764;2.710;2023-02-03T12:26:10;102574.84;;;11.36;62.79
52393;BME280;38320;39.764;2.710;2023-02-03T12:31:35;102568.75;;;11.34;62.93
52393;BME280;38320;39.764;2.710;2023-02-03T12:34:17;102580.94;;;11.39;62.82
52393;BME280;38320;39.764;2.710;2023-02-03T12:39:23;102558.09;;;11.34;63.06
52393;BME280;38320;39.764;2.710;2023-02-03T12:42:02;102550.78;;;11.39;63.05
52393;BME280;38320;39.764;2.710;2023-02-03T12:52:54;102553.97;;;11.47;63.81
52393;BME280;38320;39.764;2.710;2023-02-03T12:57:57;102553.53;;;11.58;62.73
52393;BME280;38320;39.764;2.710;2023-02-03T13:06:07;102540.28;;;11.56;62.74
52393;BME280;38320;39.764;2.710;2023-02-03T13:08:42;102542.13;;;11.54;63.13
52393;BME280;38320;39.764;2.710;2023-02-03T13:13:47;102528.97;;;11.51;62.80
52393;BME280;38320;39.764;2.710;2023-02-03T13:16:16;102514.03;;;11.47;63.88
52393;BME280;38320;39.764;2.710;2023-02-03T13:18:52;102523.53;;;11.53;63.43
52393;BME280;38320;39.764;2.710;2023-02-03T13:21:19;102511.38;;;11.47;63.20
52393;BME280;38320;39.764;2.710;2023-02-03T13:23:45;102514.63;;;11.54;63.33
